sensor_id;sensor_type;location;lat;lon;timestamp;P1;durP1;ratioP1;P2;durP2;ratioP2
45232;SDS011;30969;51.052;17.056;2022-09-27T00:00:39;23.75;;;16.05;;
45232;SDS011;30969;51.052;17.056;2022-09-27T00:06:03;22.65;;;14.88;;
45232;SDS011;30969;51.052;17.056;2022-09-27T00:11:10;20.95;;;14.23;;
45232;SDS011;30969;51.052;17.056;2022-09-27T00:16:20;19.65;;;15.18;;
45232;SDS011;30969;51.052;17.056;2022-09-27T00:21:24;18.83;;;15.25;;
45232;SDS011;30969;51.052;17.056;2022-09-27T00:26:27;21.73;;;14.20;;
45232;SDS011;30969;51.052;17.056;2022-09-27T00:31:32;19.02;;;14.85;;
45232;SDS011;30969;51.052;17.056;2022-09-27T00:36:35;19.30;;;15.15;;
45232;SDS011;30969;51.052;17.056;2022-09-27T00:41:38;17.85;;;14.25;;
45232;SDS011;30969;51.052;17.056;2022-09-27T00:46:44;21.45;;;15.52;;
45232;SDS011;30969;51.052;17.056;2022-09-27T00:51:52;20.60;;;15.32;;
45232;SDS011;30969;51.052;17.056;2022-09-27T00:56:59;23.38;;;16.25;;
45232;SDS011;30969;51.052;17.056;2022-09-27T01:02:06;23.40;;;16.67;;
45232;SDS011;30969;51.052;17.056;2022-09-27T01:07:09;19.77;;;15.23;;
45232;SDS011;30969;51.052;17.056;2022-09-27T01:12:15;23.65;;;15.57;;
45232;SDS011;30969;51.052;17.056;2022-09-27T01:17:28;19.60;;;15.45;;
45232;SDS011;30969;51.052;17.056;2022-09-27T01:22:40;19.58;;;15.18;;
45232;SDS011;30969;51.052;17.056;2022-09-27T01:33:33;27.92;;;17.50;;
45232;SDS011;30969;51.052;17.056;2022-09-27T01:38:44;22.75;;;15.38;;
45232;SDS011;30969;51.052;17.056;2022-09-27T01:43:58;21.10;;;15.82;;
45232;SDS011;30969;51.052;17.056;2022-09-27T01:49:07;21.73;;;15.77;;
45232;SDS011;30969;51.052;17.056;2022-09-27T01:54:15;18.95;;;14.77;;
45232;SDS011;30969;51.052;17.056;2022-09-27T01:59:25;19.92;;;14.82;;
45232;SDS011;30969;51.052;17.056;2022-09-27T02:04:33;19.85;;;14.15;;
45232;SDS011;30969;51.052;17.056;2022-09-27T02:09:39;21.60;;;15.07;;
45232;SDS011;30969;51.052;17.056;2022-09-27T02:14:48;21.20;;;15.88;;
45232;SDS011;30969;51.052;17.056;2022-09-27T02:20:00;18.85;;;14.40;;
45232;SDS011;30969;51.052;17.056;2022-09-27T02:25:10;24.23;;;16.08;;
45232;SDS011;30969;51.052;17.056;2022-09-27T02:30:20;23.35;;;15.57;;
45232;SDS011;30969;51.052;17.056;2022-09-27T02:35:26;20.63;;;15.35;;
45232;SDS011;30969;51.052;17.056;2022-09-27T02:40:33;22.08;;;14.82;;
45232;SDS011;30969;51.052;17.056;2022-09-27T02:45:41;18.02;;;14.38;;
45232;SDS011;30969;51.052;17.056;2022-09-27T02:51:08;20.42;;;14.45;;
45232;SDS011;30969;51.052;17.056;2022-09-27T02:56:22;19.75;;;14.23;;
45232;SDS011;30969;51.052;17.056;2022-09-27T03:01:30;21.00;;;15.25;;
45232;SDS011;30969;51.052;17.056;2022-09-27T03:06:41;19.60;;;14.25;;
45232;SDS011;30969;51.052;17.056;2022-09-27T03:11:48;17.98;;;14.15;;
45232;SDS011;30969;51.052;17.056;2022-09-27T03:16:51;18.75;;;14.38;;
45232;SDS011;30969;51.052;17.056;2022-09-27T03:21:56;16.70;;;13.07;;
45232;SDS011;30969;51.052;17.056;2022-09-27T03:26:59;17.60;;;13.63;;
45232;SDS011;30969;51.052;17.056;2022-09-27T03:32:02;17.58;;;13.40;;
45232;SDS011;30969;51.052;17.056;2022-09-27T03:37:07;17.20;;;12.55;;
45232;SDS011;30969;51.052;17.056;2022-09-27T03:42:11;15.77;;;11.70;;
45232;SDS011;30969;51.052;17.056;2022-09-27T03:47:14;16.00;;;12.13;;
45232;SDS011;30969;51.052;17.056;2022-09-27T03:52:19;15.45;;;11.30;;
45232;SDS011;30969;51.052;17.056;2022-09-27T03:57:22;15.90;;;11.85;;
45232;SDS011;30969;51.052;17.056;2022-09-27T04:02:26;16.17;;;11.82;;
45232;SDS011;30969;51.052;17.056;2022-09-27T04:07:31;15.60;;;12.05;;
45232;SDS011;30969;51.052;17.056;2022-09-27T04:12:34;19.77;;;12.60;;
45232;SDS011;30969;51.052;17.056;2022-09-27T04:17:39;15.18;;;12.38;;
45232;SDS011;30969;51.052;17.056;2022-09-27T04:22:44;16.23;;;11.63;;
45232;SDS011;30969;51.052;17.056;2022-09-27T04:27:47;20.45;;;13.93;;
45232;SDS011;30969;51.052;17.056;2022-09-27T04:32:55;15.27;;;11.90;;
45232;SDS011;30969;51.052;17.056;2022-09-27T04:38:00;18.05;;;13.13;;
45232;SDS011;30969;51.052;17.056;2022-09-27T04:43:03;18.23;;;11.27;;
45232;SDS011;30969;51.052;17.056;2022-09-27T04:48:07;16.10;;;11.80;;
45232;SDS011;30969;51.052;17.056;2022-09-27T04:53:13;18.58;;;13.65;;
45232;SDS011;30969;51.052;17.056;2022-09-27T04:58:16;15.98;;;12.25;;
45232;SDS011;30969;51.052;17.056;2022-09-27T05:03:20;18.17;;;12.55;;
45232;SDS011;30969;51.052;17.056;2022-09-27T05:08:25;17.42;;;11.63;;
45232;SDS011;30969;51.052;17.056;2022-09-27T05:13:29;16.27;;;12.00;;
45232;SDS011;30969;51.052;17.056;2022-09-27T05:18:32;13.93;;;11.52;;
45232;SDS011;30969;51.052;17.056;2022-09-27T05:23:37;15.50;;;11.77;;
45232;SDS011;30969;51.052;17.056;2022-09-27T05:28:45;16.40;;;11.73;;
45232;SDS011;30969;51.052;17.056;2022-09-27T05:33:48;14.82;;;10.98;;
45232;SDS011;30969;51.052;17.056;2022-09-27T05:38:53;14.25;;;11.68;;
45232;SDS011;30969;51.052;17.056;2022-09-27T05:43:56;14.38;;;10.77;;
45232;SDS011;30969;51.052;17.056;2022-09-27T05:49:00;15.20;;;11.25;;
45232;SDS011;30969;51.052;17.056;2022-09-27T05:54:04;11.60;;;9.48;;
45232;SDS011;30969;51.052;17.056;2022-09-27T05:59:08;13.52;;;9.57;;
45232;SDS011;30969;51.052;17.056;2022-09-27T06:04:11;14.70;;;10.38;;
45232;SDS011;30969;51.052;17.056;2022-09-27T06:09:16;18.05;;;11.70;;
45232;SDS011;30969;51.052;17.056;2022-09-27T06:14:20;13.95;;;10.38;;
45232;SDS011;30969;51.052;17.056;2022-09-27T06:19:23;13.88;;;10.93;;
45232;SDS011;30969;51.052;17.056;2022-09-27T06:24:28;13.30;;;10.60;;
45232;SDS011;30969;51.052;17.056;2022-09-27T06:29:31;14.10;;;10.73;;
45232;SDS011;30969;51.052;17.056;2022-09-27T06:34:35;20.60;;;13.27;;
45232;SDS011;30969;51.052;17.056;2022-09-27T06:39:40;16.08;;;11.45;;
45232;SDS011;30969;51.052;17.056;2022-09-27T06:44:44;14.75;;;10.50;;
45232;SDS011;30969;51.052;17.056;2022-09-27T06:49:51;14.25;;;10.43;;
45232;SDS011;30969;51.052;17.056;2022-09-27T06:54:56;13.13;;;10.15;;
45232;SDS011;30969;51.052;17.056;2022-09-27T06:59:59;14.82;;;10.20;;
45232;SDS011;30969;51.052;17.056;2022-09-27T07:05:20;15.98;;;10.98;;
45232;SDS011;30969;51.052;17.056;2022-09-27T07:10:27;21.90;;;13.57;;
45232;SDS011;30969;51.052;17.056;2022-09-27T07:15:33;13.23;;;9.90;;
45232;SDS011;30969;51.052;17.056;2022-09-27T07:20:37;15.18;;;10.07;;
45232;SDS011;30969;51.052;17.056;2022-09-27T07:25:42;16.52;;;10.93;;
45232;SDS011;30969;51.052;17.056;2022-09-27T07:30:45;16.30;;;11.15;;
45232;SDS011;30969;51.052;17.056;2022-09-27T07:35:49;13.95;;;10.55;;
45232;SDS011;30969;51.052;17.056;2022-09-27T07:40:53;15.00;;;9.75;;
45232;SDS011;30969;51.052;17.056;2022-09-27T07:45:57;14.60;;;10.43;;
45232;SDS011;30969;51.052;17.056;2022-09-27T07:51:00;14.82;;;10.52;;
45232;SDS011;30969;51.052;17.056;2022-09-27T07:56:05;13.18;;;9.85;;
45232;SDS011;30969;51.052;17.056;2022-09-27T08:01:09;13.65;;;10.18;;
45232;SDS011;30969;51.052;17.056;2022-09-27T08:06:12;14.95;;;10.25;;
45232;SDS011;30969;51.052;17.056;2022-09-27T08:11:17;13.93;;;10.15;;
45232;SDS011;30969;51.052;17.056;2022-09-27T08:16:22;13.73;;;10.60;;
45232;SDS011;30969;51.052;17.056;2022-09-27T08:21:26;15.23;;;11.45;;
45232;SDS011;30969;51.052;17.056;2022-09-27T08:26:32;15.27;;;11.07;;
45232;SDS011;30969;51.052;17.056;2022-09-27T08:31:36;17.10;;;11.65;;
45232;SDS011;30969;51.052;17.056;2022-09-27T08:36:41;13.73;;;9.98;;
45232;SDS011;30969;51.052;17.056;2022-09-27T08:41:49;14.90;;;10.75;;
45232;SDS011;30969;51.052;17.056;2022-09-27T08:46:57;13.88;;;10.40;;
45232;SDS011;30969;51.052;17.056;2022-09-27T08:52:11;14.00;;;11.32;;
45232;SDS011;30969;51.052;17.056;2022-09-27T08:57:21;15.32;;;10.75;;
45232;SDS011;30969;51.052;17.056;2022-09-27T09:02:27;14.43;;;11.10;;
45232;SDS011;30969;51.052;17.056;2022-09-27T09:13:04;13.82;;;10.80;;
45232;SDS011;30969;51.052;17.056;2022-09-27T09:18:19;20.47;;;11.40;;
45232;SDS011;30969;51.052;17.056;2022-09-27T09:23:36;13.57;;;10.82;;
45232;SDS011;30969;51.052;17.056;2022-09-27T09:28:57;13.75;;;10.20;;
45232;SDS011;30969;51.052;17.056;2022-09-27T09:34:09;15.98;;;10.32;;
45232;SDS011;30969;51.052;17.056;2022-09-27T09:39:18;17.40;;;11.35;;
45232;SDS011;30969;51.052;17.056;2022-09-27T09:44:28;18.15;;;10.40;;
45232;SDS011;30969;51.052;17.056;2022-09-27T09:49:38;14.25;;;9.50;;
45232;SDS011;30969;51.052;17.056;2022-09-27T09:54:49;12.43;;;9.57;;
45232;SDS011;30969;51.052;17.056;2022-09-27T09:59:59;12.85;;;9.90;;
45232;SDS011;30969;51.052;17.056;2022-09-27T10:05:06;12.95;;;10.95;;
45232;SDS011;30969;51.052;17.056;2022-09-27T10:10:16;12.20;;;9.27;;
45232;SDS011;30969;51.052;17.056;2022-09-27T10:15:23;12.60;;;8.75;;
45232;SDS011;30969;51.052;17.056;2022-09-27T10:20:31;12.00;;;9.52;;
45232;SDS011;30969;51.052;17.056;2022-09-27T10:25:44;13.30;;;9.18;;
45232;SDS011;30969;51.052;17.056;2022-09-27T10:30:54;19.63;;;11.13;;
45232;SDS011;30969;51.052;17.056;2022-09-27T10:35:59;13.45;;;11.38;;
45232;SDS011;30969;51.052;17.056;2022-09-27T10:41:16;11.65;;;9.32;;
45232;SDS011;30969;51.052;17.056;2022-09-27T10:46:27;12.02;;;9.88;;
45232;SDS011;30969;51.052;17.056;2022-09-27T10:51:34;11.63;;;9.25;;
45232;SDS011;30969;51.052;17.056;2022-09-27T10:56:38;14.55;;;10.68;;
45232;SDS011;30969;51.052;17.056;2022-09-27T11:01:43;13.32;;;9.30;;
45232;SDS011;30969;51.052;17.056;2022-09-27T11:06:50;13.93;;;10.48;;
45232;SDS011;30969;51.052;17.056;2022-09-27T11:12:05;12.57;;;10.07;;
45232;SDS011;30969;51.052;17.056;2022-09-27T11:17:14;14.02;;;9.90;;
45232;SDS011;30969;51.052;17.056;2022-09-27T11:22:27;11.88;;;9.88;;
45232;SDS011;30969;51.052;17.056;2022-09-27T11:27:45;11.55;;;9.20;;
45232;SDS011;30969;51.052;17.056;2022-09-27T11:33:10;15.48;;;10.27;;
45232;SDS011;30969;51.052;17.056;2022-09-27T11:38:38;13.95;;;9.48;;
45232;SDS011;30969;51.052;17.056;2022-09-27T11:49:37;12.88;;;8.30;;
45232;SDS011;30969;51.052;17.056;2022-09-27T11:55:14;10.95;;;8.48;;
45232;SDS011;30969;51.052;17.056;2022-09-27T12:00:31;9.63;;;7.30;;
45232;SDS011;30969;51.052;17.056;2022-09-27T12:05:47;8.48;;;6.68;;
45232;SDS011;30969;51.052;17.056;2022-09-27T12:11:09;10.20;;;7.43;;
45232;SDS011;30969;51.052;17.056;2022-09-27T12:16:18;11.65;;;6.88;;
45232;SDS011;30969;51.052;17.056;2022-09-27T12:21:24;8.90;;;5.88;;
45232;SDS011;30969;51.052;17.056;2022-09-27T12:26:34;9.20;;;6.78;;
45232;SDS011;30969;51.052;17.056;2022-09-27T12:31:41;8.45;;;6.95;;
45232;SDS011;30969;51.052;17.056;2022-09-27T12:36:52;8.10;;;6.55;;
45232;SDS011;30969;51.052;17.056;2022-09-27T12:42:02;8.75;;;6.22;;
45232;SDS011;30969;51.052;17.056;2022-09-27T12:47:17;7.50;;;5.43;;
45232;SDS011;30969;51.052;17.056;2022-09-27T12:52:32;8.07;;;5.72;;
45232;SDS011;30969;51.052;17.056;2022-09-27T12:57:44;8.15;;;5.93;;
45232;SDS011;30969;51.052;17.056;2022-09-27T13:03:04;7.95;;;6.18;;
45232;SDS011;30969;51.052;17.056;2022-09-27T13:08:34;8.77;;;5.85;;
45232;SDS011;30969;51.052;17.056;2022-09-27T13:13:54;7.18;;;5.28;;
45232;SDS011;30969;51.052;17.056;2022-09-27T13:19:00;8.18;;;5.82;;
45232;SDS011;30969;51.052;17.056;2022-09-27T13:24:12;8.13;;;5.57;;
45232;SDS011;30969;51.052;17.056;2022-09-27T13:29:42;7.43;;;5.28;;
45232;SDS011;30969;51.052;17.056;2022-09-27T13:34:46;11.13;;;6.63;;
45232;SDS011;30969;51.052;17.056;2022-09-27T13:45:25;8.82;;;6.55;;
45232;SDS011;30969;51.052;17.056;2022-09-27T13:50:32;13.65;;;6.88;;
45232;SDS011;30969;51.052;17.056;2022-09-27T13:55:44;9.65;;;7.28;;
45232;SDS011;30969;51.052;17.056;2022-09-27T14:00:50;8.20;;;6.68;;
45232;SDS011;30969;51.052;17.056;2022-09-27T14:05:56;9.75;;;6.57;;
45232;SDS011;30969;51.052;17.056;2022-09-27T14:11:09;11.53;;;7.97;;
45232;SDS011;30969;51.052;17.056;2022-09-27T14:16:17;9.68;;;7.30;;
45232;SDS011;30969;51.052;17.056;2022-09-27T14:21:26;11.48;;;7.38;;
45232;SDS011;30969;51.052;17.056;2022-09-27T14:26:31;10.98;;;7.82;;
45232;SDS011;30969;51.052;17.056;2022-09-27T14:31:36;8.35;;;6.40;;
45232;SDS011;30969;51.052;17.056;2022-09-27T14:36:39;8.10;;;5.60;;
45232;SDS011;30969;51.052;17.056;2022-09-27T14:42:04;7.13;;;5.68;;
45232;SDS011;30969;51.052;17.056;2022-09-27T14:47:24;6.32;;;5.00;;
45232;SDS011;30969;51.052;17.056;2022-09-27T14:52:29;7.53;;;4.75;;
45232;SDS011;30969;51.052;17.056;2022-09-27T14:57:34;7.13;;;5.43;;
45232;SDS011;30969;51.052;17.056;2022-09-27T15:02:40;6.55;;;4.65;;
45232;SDS011;30969;51.052;17.056;2022-09-27T15:07:45;11.43;;;6.63;;
45232;SDS011;30969;51.052;17.056;2022-09-27T15:12:50;9.25;;;6.97;;
45232;SDS011;30969;51.052;17.056;2022-09-27T15:18:00;11.13;;;6.80;;
45232;SDS011;30969;51.052;17.056;2022-09-27T15:23:04;10.82;;;8.15;;
45232;SDS011;30969;51.052;17.056;2022-09-27T15:28:12;10.02;;;6.85;;
45232;SDS011;30969;51.052;17.056;2022-09-27T15:33:20;7.03;;;4.10;;
45232;SDS011;30969;51.052;17.056;2022-09-27T15:38:26;5.80;;;3.72;;
45232;SDS011;30969;51.052;17.056;2022-09-27T15:43:32;5.45;;;3.80;;
45232;SDS011;30969;51.052;17.056;2022-09-27T15:48:39;5.93;;;4.47;;
45232;SDS011;30969;51.052;17.056;2022-09-27T15:53:43;9.20;;;5.57;;
45232;SDS011;30969;51.052;17.056;2022-09-27T15:58:47;10.00;;;6.97;;
45232;SDS011;30969;51.052;17.056;2022-09-27T16:03:52;11.40;;;5.93;;
45232;SDS011;30969;51.052;17.056;2022-09-27T16:08:56;8.45;;;5.40;;
45232;SDS011;30969;51.052;17.056;2022-09-27T16:13:59;7.13;;;4.80;;
45232;SDS011;30969;51.052;17.056;2022-09-27T16:19:04;8.35;;;5.72;;
45232;SDS011;30969;51.052;17.056;2022-09-27T16:24:08;7.18;;;4.65;;
45232;SDS011;30969;51.052;17.056;2022-09-27T16:29:13;10.32;;;5.20;;
45232;SDS011;30969;51.052;17.056;2022-09-27T16:34:19;2.30;;;1.30;;
45232;SDS011;30969;51.052;17.056;2022-09-27T16:39:22;3.05;;;0.90;;
45232;SDS011;30969;51.052;17.056;2022-09-27T16:44:25;1.05;;;0.60;;
45232;SDS011;30969;51.052;17.056;2022-09-27T16:49:31;1.75;;;0.70;;
45232;SDS011;30969;51.052;17.056;2022-09-27T16:54:52;2.15;;;0.70;;
45232;SDS011;30969;51.052;17.056;2022-09-27T16:59:55;1.88;;;0.95;;
45232;SDS011;30969;51.052;17.056;2022-09-27T17:05:00;3.25;;;1.05;;
45232;SDS011;30969;51.052;17.056;2022-09-27T17:10:04;1.50;;;1.00;;
45232;SDS011;30969;51.052;17.056;2022-09-27T17:15:08;5.80;;;1.35;;
45232;SDS011;30969;51.052;17.056;2022-09-27T17:20:13;3.80;;;1.60;;
45232;SDS011;30969;51.052;17.056;2022-09-27T17:25:17;3.00;;;1.40;;
45232;SDS011;30969;51.052;17.056;2022-09-27T17:30:20;2.28;;;1.58;;
45232;SDS011;30969;51.052;17.056;2022-09-27T17:35:25;8.48;;;1.75;;
45232;SDS011;30969;51.052;17.056;2022-09-27T17:40:29;2.47;;;1.52;;
45232;SDS011;30969;51.052;17.056;2022-09-27T17:45:35;3.20;;;2.20;;
45232;SDS011;30969;51.052;17.056;2022-09-27T17:50:41;3.20;;;2.00;;
45232;SDS011;30969;51.052;17.056;2022-09-27T17:55:48;4.65;;;2.47;;
45232;SDS011;30969;51.052;17.056;2022-09-27T18:00:52;4.68;;;2.85;;
45232;SDS011;30969;51.052;17.056;2022-09-27T18:06:06;6.28;;;2.60;;
45232;SDS011;30969;51.052;17.056;2022-09-27T18:11:12;6.68;;;1.90;;
45232;SDS011;30969;51.052;17.056;2022-09-27T18:16:17;4.47;;;2.15;;
45232;SDS011;30969;51.052;17.056;2022-09-27T18:21:22;4.35;;;2.47;;
45232;SDS011;30969;51.052;17.056;2022-09-27T18:26:27;5.15;;;2.92;;
45232;SDS011;30969;51.052;17.056;2022-09-27T18:31:30;4.40;;;2.47;;
45232;SDS011;30969;51.052;17.056;2022-09-27T18:36:53;8.38;;;3.47;;
45232;SDS011;30969;51.052;17.056;2022-09-27T18:41:56;6.47;;;3.58;;
45232;SDS011;30969;51.052;17.056;2022-09-27T18:47:02;6.40;;;3.67;;
45232;SDS011;30969;51.052;17.056;2022-09-27T18:52:07;7.55;;;3.97;;
45232;SDS011;30969;51.052;17.056;2022-09-27T18:57:10;6.30;;;3.30;;
45232;SDS011;30969;51.052;17.056;2022-09-27T19:02:14;5.25;;;2.92;;
45232;SDS011;30969;51.052;17.056;2022-09-27T19:07:19;6.47;;;3.50;;
45232;SDS011;30969;51.052;17.056;2022-09-27T19:12:23;7.32;;;3.67;;
45232;SDS011;30969;51.052;17.056;2022-09-27T19:17:26;6.28;;;3.72;;
45232;SDS011;30969;51.052;17.056;2022-09-27T19:22:31;6.18;;;3.30;;
45232;SDS011;30969;51.052;17.056;2022-09-27T19:27:34;10.63;;;5.57;;
45232;SDS011;30969;51.052;17.056;2022-09-27T19:32:44;8.50;;;5.32;;
45232;SDS011;30969;51.052;17.056;2022-09-27T19:37:49;13.68;;;6.63;;
45232;SDS011;30969;51.052;17.056;2022-09-27T19:42:53;13.35;;;6.95;;
45232;SDS011;30969;51.052;17.056;2022-09-27T19:47:56;9.38;;;5.20;;
45232;SDS011;30969;51.052;17.056;2022-09-27T19:53:01;13.20;;;6.15;;
45232;SDS011;30969;51.052;17.056;2022-09-27T19:58:05;11.60;;;6.45;;
45232;SDS011;30969;51.052;17.056;2022-09-27T20:03:08;13.55;;;6.80;;
45232;SDS011;30969;51.052;17.056;2022-09-27T20:08:13;10.13;;;5.97;;
45232;SDS011;30969;51.052;17.056;2022-09-27T20:13:17;10.38;;;5.75;;
45232;SDS011;30969;51.052;17.056;2022-09-27T20:18:20;7.63;;;5.35;;
45232;SDS011;30969;51.052;17.056;2022-09-27T20:23:25;6.47;;;4.25;;
45232;SDS011;30969;51.052;17.056;2022-09-27T20:28:29;7.80;;;3.78;;
45232;SDS011;30969;51.052;17.056;2022-09-27T20:33:32;5.88;;;3.47;;
45232;SDS011;30969;51.052;17.056;2022-09-27T20:38:49;4.85;;;3.10;;
45232;SDS011;30969;51.052;17.056;2022-09-27T20:43:57;6.05;;;3.10;;
45232;SDS011;30969;51.052;17.056;2022-09-27T20:49:02;7.25;;;3.42;;
45232;SDS011;30969;51.052;17.056;2022-09-27T20:54:09;6.72;;;4.00;;
45232;SDS011;30969;51.052;17.056;2022-09-27T20:59:14;7.32;;;4.30;;
45232;SDS011;30969;51.052;17.056;2022-09-27T21:04:22;7.38;;;4.65;;
45232;SDS011;30969;51.052;17.056;2022-09-27T21:09:27;11.88;;;6.70;;
45232;SDS011;30969;51.052;17.056;2022-09-27T21:14:31;9.85;;;6.13;;
45232;SDS011;30969;51.052;17.056;2022-09-27T21:19:34;10.93;;;5.93;;
45232;SDS011;30969;51.052;17.056;2022-09-27T21:24:39;10.68;;;5.63;;
45232;SDS011;30969;51.052;17.056;2022-09-27T21:29:42;10.15;;;6.43;;
45232;SDS011;30969;51.052;17.056;2022-09-27T21:34:46;8.48;;;4.70;;
45232;SDS011;30969;51.052;17.056;2022-09-27T21:39:51;6.72;;;3.80;;
45232;SDS011;30969;51.052;17.056;2022-09-27T21:44:54;6.80;;;3.72;;
45232;SDS011;30969;51.052;17.056;2022-09-27T21:49:58;6.38;;;3.97;;
45232;SDS011;30969;51.052;17.056;2022-09-27T21:55:02;6.90;;;4.10;;
45232;SDS011;30969;51.052;17.056;2022-09-27T22:00:08;7.68;;;4.07;;
45232;SDS011;30969;51.052;17.056;2022-09-27T22:05:12;10.13;;;5.70;;
45232;SDS011;30969;51.052;17.056;2022-09-27T22:10:17;9.02;;;5.60;;
45232;SDS011;30969;51.052;17.056;2022-09-27T22:15:20;10.07;;;5.38;;
45232;SDS011;30969;51.052;17.056;2022-09-27T22:20:24;11.77;;;5.63;;
45232;SDS011;30969;51.052;17.056;2022-09-27T22:25:29;9.95;;;5.85;;
45232;SDS011;30969;51.052;17.056;2022-09-27T22:30:33;9.90;;;5.72;;
45232;SDS011;30969;51.052;17.056;2022-09-27T22:35:42;8.02;;;5.07;;
45232;SDS011;30969;51.052;17.056;2022-09-27T22:40:53;7.53;;;4.10;;
45232;SDS011;30969;51.052;17.056;2022-09-27T22:45:57;8.45;;;4.85;;
45232;SDS011;30969;51.052;17.056;2022-09-27T22:51:01;8.07;;;5.00;;
45232;SDS011;30969;51.052;17.056;2022-09-27T22:56:07;9.02;;;4.80;;
45232;SDS011;30969;51.052;17.056;2022-09-27T23:01:15;8.02;;;4.53;;
45232;SDS011;30969;51.052;17.056;2022-09-27T23:06:20;6.20;;;3.50;;
45232;SDS011;30969;51.052;17.056;2022-09-27T23:11:26;6.90;;;3.80;;
45232;SDS011;30969;51.052;17.056;2022-09-27T23:16:31;11.10;;;5.35;;
45232;SDS011;30969;51.052;17.056;2022-09-27T23:21:36;9.95;;;4.93;;
45232;SDS011;30969;51.052;17.056;2022-09-27T23:26:41;6.88;;;3.65;;
45232;SDS011;30969;51.052;17.056;2022-09-27T23:31:44;5.10;;;3.08;;
45232;SDS011;30969;51.052;17.056;2022-09-27T23:36:48;5.07;;;3.60;;
45232;SDS011;30969;51.052;17.056;2022-09-27T23:41:53;7.13;;;4.20;;
45232;SDS011;30969;51.052;17.056;2022-09-27T23:46:56;6.22;;;3.50;;
45232;SDS011;30969;51.052;17.056;2022-09-27T23:52:01;5.43;;;3.50;;
45232;SDS011;30969;51.052;17.056;2022-09-27T23:57:06;5.35;;;3.38;;
